Time;durP1;ratioP1;P1;durP2;ratioP2;P2;SDS_P1;SDS_P2;PMS_P1;PMS_P2;Temp;Humidity;BMP_temperature;BMP_pressure;BME280_temperature;BME280_humidity;BME280_pressure;Samples;Min_cycle;Max_cycle;Signal;HPM_P1;HPM_P2
2022/12/10 00:01:45;;;;;;;61.10;26.23;;;1.10;99.90;;;;;;5093127;28;20177;-72
2022/12/10 00:04:12;;;;;;;58.70;26.23;;;1.00;99.90;;;;;;5091783;28;20289;-73
2022/12/10 00:06:40;;;;;;;63.13;26.00;;;0.90;99.90;;;;;;5092870;28;20165;-72
2022/12/10 00:09:09;;;;;;;57.27;26.30;;;0.70;99.90;;;;;;5091405;28;20177;-71
2022/12/10 00:11:34;;;;;;;58.60;27.53;;;0.70;99.90;;;;;;5092803;28;20305;-71
2022/12/10 00:14:00;;;;;;;58.73;27.23;;;0.60;99.90;;;;;;5092758;28;20294;-73
2022/12/10 00:16:28;;;;;;;64.10;26.73;;;0.60;99.90;;;;;;5092957;28;20627;-72
2022/12/10 00:18:54;;;;;;;63.27;27.37;;;0.60;99.90;;;;;;5092953;28;20621;-72
2022/12/10 00:21:23;;;;;;;67.60;28.47;;;0.70;99.90;;;;;;5092906;28;20247;-72
2022/12/10 00:23:49;;;;;;;67.77;29.13;;;0.80;99.90;;;;;;5092472;28;20172;-73
2022/12/10 00:26:21;;;;;;;66.43;29.53;;;0.80;99.90;;;;;;5091623;28;20184;-71
2022/12/10 00:28:48;;;;;;;65.23;27.57;;;0.90;99.90;;;;;;5092731;28;20649;-73
2022/12/10 00:31:20;;;;;;;59.77;26.50;;;0.90;99.90;;;;;;5093024;28;20178;-71
2022/12/10 00:33:46;;;;;;;63.97;27.73;;;0.90;99.90;;;;;;5092759;28;20180;-72
2022/12/10 00:36:24;;;;;;;60.10;27.57;;;0.70;99.90;;;;;;5092643;28;20164;-72
2022/12/10 00:38:50;;;;;;;58.70;26.60;;;0.80;99.90;;;;;;5092481;28;20203;-72
2022/12/10 00:41:17;;;;;;;62.40;27.17;;;0.90;99.90;;;;;;5092650;28;20231;-72
2022/12/10 00:43:44;;;;;;;57.80;25.50;;;0.80;99.90;;;;;;5091337;28;20195;-72
2022/12/10 00:46:10;;;;;;;55.90;25.73;;;0.80;99.90;;;;;;5095805;28;20178;-72
2022/12/10 00:48:36;;;;;;;59.57;25.43;;;0.60;99.90;;;;;;5096662;28;20212;-72
2022/12/10 00:51:10;;;;;;;59.70;26.47;;;0.70;99.90;;;;;;5096549;28;20195;-72
2022/12/10 00:53:37;;;;;;;53.77;25.07;;;0.70;99.90;;;;;;5095880;28;20176;-72
2022/12/10 00:56:03;;;;;;;59.10;26.73;;;0.60;99.90;;;;;;5096251;28;20176;-72
2022/12/10 00:58:32;;;;;;;58.57;26.43;;;0.60;99.90;;;;;;5096321;28;20303;-72
2022/12/10 01:01:20;;;;;;;59.60;26.50;;;0.70;99.90;;;;;;5095936;28;20174;-72
2022/12/10 01:03:47;;;;;;;57.90;26.70;;;0.70;99.90;;;;;;5095003;28;20174;-72
2022/12/10 01:06:18;;;;;;;63.27;26.90;;;0.70;99.90;;;;;;5094585;28;20172;-72
2022/12/10 01:08:45;;;;;;;60.27;26.37;;;0.60;99.90;;;;;;5094498;28;20206;-72
2022/12/10 01:11:13;;;;;;;58.60;26.67;;;0.60;99.90;;;;;;5091236;28;20228;-72
2022/12/10 01:13:40;;;;;;;58.57;27.10;;;0.50;99.90;;;;;;5075733;28;20173;-72
2022/12/10 01:16:07;;;;;;;58.33;27.30;;;0.50;99.90;;;;;;5075760;28;20173;-72
2022/12/10 01:18:33;;;;;;;61.13;27.47;;;0.60;99.90;;;;;;5091289;28;20206;-72
2022/12/10 01:21:07;;;;;;;63.30;27.43;;;0.60;99.90;;;;;;5075289;28;20201;-72
2022/12/10 01:23:35;;;;;;;62.07;28.60;;;0.60;99.90;;;;;;5075579;28;20226;-71
2022/12/10 01:26:03;;;;;;;60.97;29.07;;;0.60;99.90;;;;;;5075472;28;20165;-71
2022/12/10 01:28:33;;;;;;;64.77;28.77;;;0.70;99.90;;;;;;5075563;28;20212;-72
2022/12/10 01:31:11;;;;;;;64.43;28.97;;;0.60;99.90;;;;;;5090803;28;20183;-71
2022/12/10 01:33:37;;;;;;;67.63;29.87;;;0.60;99.90;;;;;;5090956;28;20180;-71
2022/12/10 01:36:11;;;;;;;63.20;28.10;;;0.60;99.90;;;;;;5075088;28;20182;-71
2022/12/10 01:38:38;;;;;;;68.17;30.27;;;0.60;99.90;;;;;;5075640;28;20170;-72
2022/12/10 01:41:04;;;;;;;64.93;29.80;;;0.70;99.90;;;;;;5075424;28;20634;-72
2022/12/10 01:44:13;;;;;;;74.23;31.73;;;0.70;99.90;;;;;;5075172;28;20180;-71
2022/12/10 01:46:45;;;;;;;69.70;31.63;;;0.60;99.90;;;;;;5033112;28;20185;-72
2022/12/10 01:49:14;;;;;;;76.20;32.50;;;0.60;99.90;;;;;;5033081;28;20192;-72
2022/12/10 01:51:42;;;;;;;67.37;30.70;;;0.70;99.90;;;;;;5032871;28;20696;-73
2022/12/10 01:54:11;;;;;;;77.53;38.40;;;0.90;99.90;;;;;;5032985;28;20186;-72
2022/12/10 01:56:42;;;;;;;68.53;32.27;;;1.00;99.90;;;;;;5032387;28;20177;-71
2022/12/10 01:59:09;;;;;;;67.60;30.90;;;1.00;99.90;;;;;;5033074;28;20176;-71
2022/12/10 02:01:55;;;;;;;91.43;48.53;;;1.00;99.90;;;;;;5032798;28;20176;-72
2022/12/10 02:05:01;;;;;;;69.57;32.20;;;1.10;99.90;;;;;;5032403;28;20612;-72
2022/12/10 02:07:47;;;;;;;72.67;30.20;;;1.00;99.90;;;;;;5032736;28;20218;-72
2022/12/10 02:10:21;;;;;;;68.20;33.93;;;0.90;99.90;;;;;;5032871;28;20263;-72
2022/12/10 02:12:49;;;;;;;71.70;33.93;;;1.00;99.90;;;;;;5032346;28;20218;-72
2022/12/10 02:15:22;;;;;;;90.00;45.67;;;1.00;99.90;;;;;;5032714;28;20696;-71
2022/12/10 02:17:55;;;;;;;71.67;33.17;;;0.90;99.90;;;;;;5032658;28;20172;-71
2022/12/10 02:20:26;;;;;;;70.40;33.97;;;1.10;99.90;;;;;;5032261;28;20257;-72
2022/12/10 02:23:01;;;;;;;73.60;33.20;;;1.00;99.90;;;;;;5038257;28;20195;-72
2022/12/10 02:25:43;;;;;;;76.93;33.87;;;1.00;99.90;;;;;;5069753;28;20662;-72
2022/12/10 02:28:27;;;;;;;70.87;32.00;;;0.90;99.90;;;;;;5069759;28;20249;-72
2022/12/10 02:30:53;;;;;;;70.13;33.03;;;0.70;99.90;;;;;;5054294;28;20234;-71
2022/12/10 02:33:22;;;;;;;67.30;30.90;;;0.70;99.90;;;;;;5054007;28;20175;-72
2022/12/10 02:35:51;;;;;;;69.33;31.97;;;0.70;99.90;;;;;;5069520;28;20203;-72
2022/12/10 02:38:25;;;;;;;72.53;32.47;;;0.70;99.90;;;;;;5054053;28;20193;-72
2022/12/10 02:40:56;;;;;;;74.87;34.47;;;0.70;99.90;;;;;;5054083;28;20169;-71
2022/12/10 02:43:24;;;;;;;70.73;32.73;;;0.80;99.90;;;;;;5054095;28;20624;-72
2022/12/10 02:45:50;;;;;;;68.70;31.90;;;0.80;99.90;;;;;;5053889;28;20180;-71
2022/12/10 02:48:18;;;;;;;70.40;34.50;;;0.80;99.90;;;;;;5053487;28;20665;-71
2022/12/10 02:50:44;;;;;;;67.57;32.53;;;0.80;99.90;;;;;;5069777;28;20168;-72
2022/12/10 02:53:10;;;;;;;68.93;31.70;;;0.60;99.90;;;;;;5053949;28;20571;-72
2022/12/10 02:56:07;;;;;;;72.03;33.50;;;0.70;99.90;;;;;;5053768;28;20181;-72
2022/12/10 02:58:43;;;;;;;72.57;32.83;;;0.70;99.90;;;;;;5053707;28;20250;-72
2022/12/10 03:01:27;;;;;;;67.57;32.00;;;0.60;99.90;;;;;;5053796;28;20172;-72
2022/12/10 03:04:03;;;;;;;72.70;32.27;;;0.50;99.90;;;;;;5053350;28;20753;-72
2022/12/10 03:06:41;;;;;;;78.30;34.27;;;0.50;99.90;;;;;;5053430;28;20170;-72
2022/12/10 03:09:18;;;;;;;78.67;34.30;;;0.50;99.90;;;;;;5053111;28;20220;-72
2022/12/10 03:11:44;;;;;;;75.03;33.20;;;0.60;99.90;;;;;;5073729;28;20214;-72
2022/12/10 03:14:22;;;;;;;84.93;36.23;;;0.60;99.90;;;;;;5093773;28;20678;-72
2022/12/10 03:16:56;;;;;;;80.33;35.40;;;0.70;99.90;;;;;;5093423;28;20195;-72
2022/12/10 03:19:28;;;;;;;85.33;34.20;;;0.50;99.90;;;;;;5093793;28;20172;-72
2022/12/10 03:21:55;;;;;;;84.37;36.63;;;0.40;99.90;;;;;;5092469;28;20195;-72
2022/12/10 03:24:22;;;;;;;80.70;35.57;;;0.40;99.90;;;;;;5093583;28;20173;-71
2022/12/10 03:26:49;;;;;;;82.73;35.93;;;0.40;99.90;;;;;;5093604;28;20685;-72
2022/12/10 03:29:21;;;;;;;83.63;34.37;;;0.50;99.90;;;;;;5092368;28;20650;-71
2022/12/10 03:31:49;;;;;;;86.60;35.93;;;0.50;99.90;;;;;;5093047;28;20533;-71
2022/12/10 03:34:15;;;;;;;93.03;35.77;;;0.40;99.90;;;;;;5093379;28;20238;-71
2022/12/10 03:36:41;;;;;;;89.03;36.07;;;0.50;99.90;;;;;;5093320;28;20258;-72
2022/12/10 03:39:07;;;;;;;89.50;35.07;;;0.40;99.90;;;;;;5093520;28;20216;-71
2022/12/10 03:41:33;;;;;;;85.47;35.20;;;0.40;99.90;;;;;;5093270;28;20175;-71
2022/12/10 03:44:00;;;;;;;87.80;36.73;;;0.40;99.90;;;;;;5093334;28;20167;-71
2022/12/10 03:46:28;;;;;;;89.80;36.73;;;0.50;99.90;;;;;;5092854;28;20176;-72
2022/12/10 03:48:54;;;;;;;90.10;36.73;;;0.40;99.90;;;;;;5093268;28;20195;-73
2022/12/10 03:51:20;;;;;;;92.87;36.13;;;0.40;99.90;;;;;;5093363;28;20173;-71
2022/12/10 03:53:48;;;;;;;92.20;37.17;;;0.40;99.90;;;;;;5091939;28;20544;-72
2022/12/10 03:56:14;;;;;;;91.57;37.07;;;0.30;99.90;;;;;;5091907;28;20229;-72
2022/12/10 03:58:39;;;;;;;93.83;36.50;;;0.50;99.90;;;;;;5093249;28;20177;-71
2022/12/10 04:01:05;;;;;;;92.23;36.73;;;0.40;99.90;;;;;;5092717;28;20184;-71
2022/12/10 04:03:35;;;;;;;87.33;37.50;;;0.40;99.90;;;;;;5093160;28;20172;-71
2022/12/10 04:06:02;;;;;;;101.90;38.77;;;0.50;99.90;;;;;;5093247;28;20247;-72
2022/12/10 04:08:28;;;;;;;97.83;38.33;;;0.40;99.90;;;;;;5093083;28;20206;-70
2022/12/10 04:10:53;;;;;;;94.57;37.57;;;0.40;99.90;;;;;;5092736;28;20208;-72
2022/12/10 04:18:47;;;;;;;97.13;37.97;;;0.40;99.90;;;;;;5094013;28;20179;-71
2022/12/10 04:26:53;;;;;;;96.93;36.80;;;0.50;99.90;;;;;;5097157;28;20188;-71
2022/12/10 04:29:20;;;;;;;93.63;34.27;;;0.60;99.90;;;;;;5096413;28;20224;-72
2022/12/10 04:31:46;;;;;;;97.10;35.97;;;0.50;99.90;;;;;;5096603;28;20679;-72
2022/12/10 04:34:11;;;;;;;90.90;36.03;;;0.60;99.90;;;;;;5096482;28;20254;-71
2022/12/10 04:36:37;;;;;;;91.93;34.93;;;0.60;99.90;;;;;;5096436;28;20188;-71
2022/12/10 04:39:03;;;;;;;94.00;35.90;;;0.60;99.90;;;;;;5096492;28;20255;-70
2022/12/10 04:41:29;;;;;;;94.03;35.80;;;0.50;99.90;;;;;;5096335;28;20649;-71
2022/12/10 04:43:54;;;;;;;99.40;36.23;;;0.50;99.90;;;;;;5096004;28;20171;-71
2022/12/10 04:46:20;;;;;;;97.77;34.33;;;0.60;99.90;;;;;;5096419;28;20178;-71
2022/12/10 04:48:46;;;;;;;91.37;36.07;;;0.50;99.90;;;;;;5096335;28;20200;-71
2022/12/10 04:51:12;;;;;;;91.87;35.03;;;0.50;99.90;;;;;;5096420;28;20253;-71
2022/12/10 04:53:37;;;;;;;96.97;36.20;;;0.60;99.90;;;;;;5096158;28;20613;-71
2022/12/10 04:56:04;;;;;;;98.50;35.77;;;0.60;99.90;;;;;;5095995;28;20811;-71
2022/12/10 04:58:31;;;;;;;102.87;35.80;;;0.60;99.90;;;;;;5095523;28;20175;-71
2022/12/10 05:01:05;;;;;;;102.87;36.23;;;0.70;99.90;;;;;;5094961;28;20172;-71
2022/12/10 05:03:31;;;;;;;104.40;37.90;;;0.60;99.90;;;;;;5095844;28;20254;-71
2022/12/10 05:06:01;;;;;;;103.17;36.13;;;0.60;99.90;;;;;;5095932;28;20216;-71
2022/12/10 05:08:27;;;;;;;96.80;35.17;;;0.70;99.90;;;;;;5095920;28;20712;-71
2022/12/10 05:10:53;;;;;;;92.03;34.97;;;0.70;99.90;;;;;;5095600;28;20213;-71
2022/12/10 05:13:18;;;;;;;94.93;35.13;;;0.60;99.90;;;;;;5095540;28;20259;-71
2022/12/10 05:15:44;;;;;;;93.77;33.53;;;0.50;99.90;;;;;;5095790;28;20214;-71
2022/12/10 05:18:09;;;;;;;99.93;35.10;;;0.40;99.90;;;;;;5095785;28;20543;-71
2022/12/10 05:20:35;;;;;;;93.80;34.23;;;0.40;99.90;;;;;;5094200;28;20186;-70
2022/12/10 05:23:46;;;;;;;100.23;36.73;;;0.40;99.90;;;;;;5094231;28;20527;-71
2022/12/10 05:25:52;;;;;;;97.57;35.17;;;0.40;99.90;;;;;;5084832;28;20226;-71
2022/12/10 05:28:22;;;;;;;102.20;35.83;;;0.40;99.90;;;;;;5095113;28;20208;-71
2022/12/10 05:30:48;;;;;;;101.30;35.03;;;0.40;99.90;;;;;;5094760;28;20168;-71
2022/12/10 05:33:14;;;;;;;89.13;33.50;;;0.40;99.90;;;;;;5095549;28;20224;-71
2022/12/10 05:35:40;;;;;;;96.23;32.57;;;0.40;99.90;;;;;;5095441;28;20164;-71
2022/12/10 05:38:06;;;;;;;94.07;34.33;;;0.40;99.90;;;;;;5095417;28;20256;-70
2022/12/10 05:40:36;;;;;;;89.57;31.47;;;0.40;99.90;;;;;;5093950;28;20252;-71
2022/12/10 05:43:02;;;;;;;82.47;31.67;;;0.50;99.90;;;;;;5094433;28;20206;-71
2022/12/10 05:45:28;;;;;;;84.63;30.97;;;0.50;99.90;;;;;;5095042;28;20173;-71
2022/12/10 05:47:53;;;;;;;87.87;32.37;;;0.60;99.90;;;;;;5095183;28;20209;-72
2022/12/10 05:50:19;;;;;;;85.53;31.20;;;0.30;99.90;;;;;;5094931;28;20170;-72
2022/12/10 05:52:45;;;;;;;94.03;30.90;;;0.30;99.90;;;;;;5095360;28;20175;-71
2022/12/10 05:55:10;;;;;;;90.37;32.13;;;0.20;99.90;;;;;;5076580;28;20168;-72
2022/12/10 05:57:36;;;;;;;97.13;34.67;;;0.20;99.90;;;;;;5094152;28;20169;-71
2022/12/10 06:00:04;;;;;;;87.43;31.03;;;0.30;99.90;;;;;;5093494;28;20176;-71
2022/12/10 06:02:32;;;;;;;84.87;30.40;;;0.30;99.90;;;;;;5094834;28;20188;-71
2022/12/10 06:04:58;;;;;;;81.03;29.93;;;0.30;99.90;;;;;;5094671;28;20161;-72
2022/12/10 06:07:24;;;;;;;81.43;28.17;;;0.30;99.90;;;;;;5094699;28;20731;-71
2022/12/10 06:09:49;;;;;;;85.33;29.60;;;0.20;99.90;;;;;;5094651;28;20176;-72
2022/12/10 06:12:15;;;;;;;91.50;29.97;;;0.20;99.90;;;;;;5093897;28;20594;-72
2022/12/10 06:14:40;;;;;;;89.40;30.27;;;0.10;99.90;;;;;;5094585;28;20177;-71
2022/12/10 06:17:06;;;;;;;141.93;31.80;;;0.10;99.90;;;;;;5094271;28;20244;-71
2022/12/10 06:19:32;;;;;;;98.37;31.20;;;0.00;99.90;;;;;;5094396;28;20172;-71
2022/12/10 06:21:58;;;;;;;85.37;29.20;;;0.00;99.90;;;;;;5094333;28;20313;-71
2022/12/10 06:24:24;;;;;;;75.13;28.53;;;0.00;99.90;;;;;;5094341;28;20167;-72
2022/12/10 06:26:50;;;;;;;88.27;28.90;;;0.00;99.90;;;;;;5094094;28;20623;-72
2022/12/10 06:29:16;;;;;;;86.70;30.00;;;0.00;99.90;;;;;;5094463;28;20168;-70
2022/12/10 06:31:42;;;;;;;89.77;29.43;;;-0.10;99.90;;;;;;5094396;28;20179;-72
2022/12/10 06:34:08;;;;;;;86.93;29.80;;;0.00;99.90;;;;;;5091999;28;20176;-72
2022/12/10 06:36:33;;;;;;;84.27;30.30;;;0.20;99.90;;;;;;5094094;28;20643;-71
2022/12/10 06:38:59;;;;;;;81.13;28.97;;;0.20;99.90;;;;;;5094114;28;20210;-71
2022/12/10 06:41:25;;;;;;;91.03;31.53;;;0.10;99.90;;;;;;5092083;28;20497;-72
2022/12/10 06:43:51;;;;;;;89.20;30.67;;;0.10;99.90;;;;;;5093727;28;20181;-70
2022/12/10 06:46:19;;;;;;;93.97;32.07;;;0.20;99.90;;;;;;5092717;28;20266;-73
2022/12/10 06:48:45;;;;;;;115.70;32.23;;;0.40;99.90;;;;;;5093931;28;20200;-72
2022/12/10 06:51:12;;;;;;;122.33;31.17;;;0.40;99.90;;;;;;5093905;28;20175;-72
2022/12/10 06:53:38;;;;;;;88.07;30.93;;;0.10;99.90;;;;;;5093503;28;20221;-72
2022/12/10 06:56:06;;;;;;;101.70;31.00;;;0.10;99.90;;;;;;5093374;28;20165;-72
2022/12/10 06:58:33;;;;;;;101.30;32.30;;;0.10;99.90;;;;;;5093684;28;20172;-71
2022/12/10 07:01:04;;;;;;;103.93;33.57;;;0.10;99.90;;;;;;5093763;28;20163;-72
2022/12/10 07:03:30;;;;;;;98.00;33.40;;;0.10;99.90;;;;;;5093828;28;20207;-71
2022/12/10 07:05:58;;;;;;;100.30;33.67;;;0.10;99.90;;;;;;5093642;28;20219;-71
2022/12/10 07:08:23;;;;;;;93.27;31.03;;;0.10;99.90;;;;;;5093514;28;20246;-72
2022/12/10 07:10:49;;;;;;;104.80;30.83;;;0.20;99.90;;;;;;5074696;28;20199;-73
2022/12/10 07:13:14;;;;;;;90.37;31.20;;;0.20;99.90;;;;;;5093281;28;20206;-72
2022/12/10 07:15:40;;;;;;;80.60;29.93;;;0.20;99.90;;;;;;5093258;28;20524;-71
2022/12/10 07:18:06;;;;;;;93.47;30.03;;;0.20;99.90;;;;;;5093424;28;20258;-71
2022/12/10 07:20:31;;;;;;;102.70;31.27;;;0.20;99.90;;;;;;5093218;28;20166;-72
2022/12/10 07:22:57;;;;;;;92.80;31.37;;;0.20;99.90;;;;;;5093301;28;20485;-72
2022/12/10 07:25:22;;;;;;;93.63;31.93;;;0.10;99.90;;;;;;5092647;28;20203;-72
2022/12/10 07:27:48;;;;;;;89.43;30.73;;;0.10;99.90;;;;;;5092818;28;20547;-72
2022/12/10 07:30:14;;;;;;;96.47;30.63;;;0.00;99.90;;;;;;5093548;28;20250;-72
2022/12/10 07:32:39;;;;;;;118.77;31.50;;;0.00;99.90;;;;;;5093053;28;20505;-73
2022/12/10 07:35:05;;;;;;;184.80;36.33;;;0.00;99.90;;;;;;5092674;28;20666;-73
2022/12/10 07:37:31;;;;;;;126.23;31.23;;;-0.20;99.90;;;;;;5093348;28;20188;-72
2022/12/10 07:39:56;;;;;;;99.83;29.50;;;-0.30;99.90;;;;;;5092517;28;20183;-72
2022/12/10 07:42:22;;;;;;;90.83;30.73;;;-0.20;99.90;;;;;;5092932;28;20516;-73
2022/12/10 07:44:48;;;;;;;91.63;30.57;;;-0.30;99.90;;;;;;5093125;28;20203;-73
2022/12/10 07:47:14;;;;;;;79.70;28.40;;;-0.20;99.90;;;;;;5092750;28;20242;-73
2022/12/10 07:49:39;;;;;;;87.73;31.30;;;-0.20;99.90;;;;;;5093205;28;20195;-73
2022/12/10 07:52:05;;;;;;;94.00;30.80;;;-0.20;99.90;;;;;;5093006;28;20655;-72
2022/12/10 07:54:31;;;;;;;100.43;31.80;;;-0.10;99.90;;;;;;5096433;28;20221;-72
2022/12/10 07:56:56;;;;;;;93.73;30.27;;;-0.10;99.90;;;;;;5099801;28;20210;-72
2022/12/10 07:59:22;;;;;;;92.97;29.80;;;-0.10;99.90;;;;;;5098994;28;20611;-73
2022/12/10 08:01:49;;;;;;;87.27;30.83;;;0.10;99.90;;;;;;5099921;28;20167;-73
2022/12/10 08:04:14;;;;;;;108.67;29.93;;;0.00;99.90;;;;;;5099603;28;20218;-73
2022/12/10 08:06:40;;;;;;;88.87;29.57;;;0.00;99.90;;;;;;5099429;28;20195;-73
2022/12/10 08:09:06;;;;;;;88.00;29.27;;;0.10;99.90;;;;;;5098784;28;20329;-73
2022/12/10 08:11:32;;;;;;;89.43;29.70;;;0.00;99.90;;;;;;5098486;28;20223;-73
2022/12/10 08:13:58;;;;;;;86.53;30.67;;;0.10;99.90;;;;;;5098449;28;20203;-73
2022/12/10 08:16:26;;;;;;;92.90;30.20;;;0.20;99.90;;;;;;5099548;28;20199;-73
2022/12/10 08:18:51;;;;;;;88.40;30.03;;;0.10;99.90;;;;;;5098028;28;20183;-72
2022/12/10 08:21:19;;;;;;;85.80;29.87;;;0.10;99.90;;;;;;5098622;28;20194;-73
2022/12/10 08:23:45;;;;;;;93.30;30.23;;;0.10;99.90;;;;;;5097373;28;20706;-73
2022/12/10 08:26:14;;;;;;;84.27;29.80;;;-0.10;99.90;;;;;;5099214;28;20250;-73
2022/12/10 08:28:40;;;;;;;89.80;28.30;;;-0.10;99.90;;;;;;5098180;28;20218;-73
2022/12/10 08:31:09;;;;;;;88.97;29.83;;;-0.20;99.90;;;;;;5099271;28;20206;-73
2022/12/10 08:33:36;;;;;;;86.23;29.13;;;-0.10;99.90;;;;;;5099530;28;20194;-72
2022/12/10 08:36:02;;;;;;;99.70;30.47;;;0.00;99.90;;;;;;5097244;28;20164;-72
2022/12/10 08:38:27;;;;;;;73.83;25.07;;;0.20;99.90;;;;;;5099417;28;20710;-72
2022/12/10 08:40:53;;;;;;;85.93;27.50;;;0.20;99.90;;;;;;5098746;28;20208;-72
2022/12/10 08:43:19;;;;;;;101.97;27.60;;;0.10;99.90;;;;;;5097586;28;20179;-72
2022/12/10 08:45:44;;;;;;;115.17;28.17;;;0.10;99.90;;;;;;5098110;28;20169;-72
2022/12/10 08:48:10;;;;;;;83.77;27.17;;;0.10;99.90;;;;;;5097650;28;20682;-72
2022/12/10 08:50:37;;;;;;;85.80;25.53;;;0.10;99.90;;;;;;5097980;28;20579;-73
2022/12/10 08:53:03;;;;;;;76.80;25.57;;;0.10;99.90;;;;;;5098948;28;20635;-73
2022/12/10 08:55:28;;;;;;;69.27;26.10;;;0.10;99.90;;;;;;5099016;28;20171;-72
2022/12/10 08:57:54;;;;;;;78.77;26.13;;;0.20;99.90;;;;;;5098588;28;20168;-72
2022/12/10 09:00:19;;;;;;;70.00;26.50;;;0.30;99.90;;;;;;5098539;28;20224;-73
2022/12/10 09:02:45;;;;;;;71.03;25.30;;;0.40;99.90;;;;;;5097804;28;20168;-73
2022/12/10 09:05:12;;;;;;;74.47;25.73;;;0.40;99.90;;;;;;5095567;28;20293;-72
2022/12/10 09:07:37;;;;;;;75.63;25.30;;;0.30;99.90;;;;;;5095893;28;20610;-73
2022/12/10 09:10:04;;;;;;;74.10;26.07;;;0.40;99.90;;;;;;5095603;28;20252;-73
2022/12/10 09:12:30;;;;;;;71.10;24.93;;;0.50;99.90;;;;;;5095058;28;20221;-72
2022/12/10 09:14:56;;;;;;;73.30;25.50;;;0.50;99.90;;;;;;5095945;28;20171;-73
2022/12/10 09:17:21;;;;;;;64.13;24.57;;;0.50;99.90;;;;;;5095761;28;20223;-72
2022/12/10 09:19:48;;;;;;;84.33;25.07;;;0.60;99.90;;;;;;5094651;28;20659;-73
2022/12/10 09:22:14;;;;;;;69.03;24.53;;;0.60;99.90;;;;;;5095429;28;20211;-73
2022/12/10 09:24:39;;;;;;;75.80;26.90;;;0.50;99.90;;;;;;5095091;28;20624;-73
2022/12/10 09:27:05;;;;;;;64.90;24.73;;;0.60;99.90;;;;;;5095706;28;20251;-72
2022/12/10 09:29:30;;;;;;;70.53;25.30;;;0.60;99.90;;;;;;5095563;28;20195;-72
2022/12/10 09:31:56;;;;;;;79.00;27.43;;;0.60;99.90;;;;;;5095477;28;20690;-73
2022/12/10 09:34:22;;;;;;;79.13;27.70;;;0.40;99.90;;;;;;5094473;28;20174;-71
2022/12/10 09:36:48;;;;;;;72.53;28.37;;;0.40;99.90;;;;;;5095025;28;20670;-72
2022/12/10 09:39:14;;;;;;;72.50;27.27;;;0.70;99.90;;;;;;5094178;28;20168;-73
2022/12/10 09:41:56;;;;;;;70.63;27.07;;;0.80;99.90;;;;;;5094207;28;20177;-72
2022/12/10 09:44:34;;;;;;;71.67;26.23;;;0.90;99.90;;;;;;5095138;28;20165;-72
2022/12/10 09:47:03;;;;;;;69.80;25.90;;;0.80;99.90;;;;;;5094921;28;20178;-72
2022/12/10 09:49:50;;;;;;;67.00;26.07;;;0.80;99.90;;;;;;5094248;28;20166;-71
2022/12/10 09:52:20;;;;;;;62.10;23.70;;;0.90;99.90;;;;;;5095286;28;20171;-72
2022/12/10 09:54:48;;;;;;;64.77;25.23;;;0.80;99.90;;;;;;5094644;28;20166;-72
2022/12/10 09:57:39;;;;;;;70.70;26.20;;;0.70;99.90;;;;;;5094413;28;20202;-71
2022/12/10 10:00:34;;;;;;;69.67;25.77;;;0.70;99.90;;;;;;5094536;28;20164;-72
2022/12/10 10:03:01;;;;;;;64.73;25.27;;;0.70;99.90;;;;;;5094128;28;20165;-72
2022/12/10 10:05:29;;;;;;;73.73;27.37;;;0.80;99.90;;;;;;5094286;28;20257;-73
2022/12/10 10:07:59;;;;;;;76.97;28.63;;;0.90;99.90;;;;;;5094069;28;20206;-72
2022/12/10 10:10:29;;;;;;;79.73;26.73;;;1.10;99.90;;;;;;5094205;28;20213;-72
2022/12/10 10:13:07;;;;;;;71.10;26.90;;;1.20;99.90;;;;;;5089983;28;20613;-72
2022/12/10 10:15:35;;;;;;;70.30;28.03;;;1.20;99.90;;;;;;5074279;28;20601;-72
2022/12/10 10:18:29;;;;;;;73.53;27.20;;;1.10;99.90;;;;;;5073192;28;20207;-71
2022/12/10 10:20:56;;;;;;;78.70;27.80;;;1.30;99.90;;;;;;5073700;28;20173;-70
2022/12/10 10:23:21;;;;;;;81.67;29.63;;;1.20;99.90;;;;;;5089362;28;20630;-70
2022/12/10 10:25:47;;;;;;;73.47;27.47;;;1.30;99.90;;;;;;5074193;28;20188;-70
2022/12/10 10:28:20;;;;;;;157.80;68.77;;;1.30;99.90;;;;;;5073759;28;20208;-71
2022/12/10 10:30:46;;;;;;;85.03;35.90;;;1.30;99.90;;;;;;5073687;28;20166;-70
2022/12/10 10:33:14;;;;;;;82.00;30.70;;;1.30;99.90;;;;;;5088957;28;20232;-72
2022/12/10 10:35:59;;;;;;;163.30;77.53;;;1.50;99.90;;;;;;5074236;28;20505;-71
2022/12/10 10:38:29;;;;;;;72.87;30.10;;;1.60;99.90;;;;;;5073274;28;20172;-72
2022/12/10 10:41:01;;;;;;;68.00;26.60;;;1.80;99.90;;;;;;5073051;28;20259;-71
2022/12/10 10:43:32;;;;;;;70.27;29.27;;;1.80;99.90;;;;;;5073565;28;20259;-72
2022/12/10 10:46:00;;;;;;;69.33;29.17;;;1.80;99.90;;;;;;5073590;28;20618;-71
2022/12/10 10:48:27;;;;;;;70.77;27.83;;;2.00;99.90;;;;;;5073081;28;20607;-72
2022/12/10 10:51:08;;;;;;;69.30;26.27;;;2.00;99.90;;;;;;5073563;28;20177;-72
2022/12/10 10:53:45;;;;;;;77.07;30.23;;;1.70;99.90;;;;;;5072916;28;20219;-71
2022/12/10 10:56:30;;;;;;;70.03;26.83;;;1.70;99.90;;;;;;5072914;28;20217;-71
2022/12/10 10:59:05;;;;;;;72.83;27.13;;;1.60;99.90;;;;;;5073150;28;20182;-71
2022/12/10 11:01:52;;;;;;;74.50;31.30;;;1.70;99.90;;;;;;5073007;28;20168;-72
2022/12/10 11:04:45;;;;;;;66.60;24.73;;;1.80;99.90;;;;;;5072937;28;20208;-72
2022/12/10 11:07:38;;;;;;;77.77;33.17;;;1.70;99.90;;;;;;5088837;28;20182;-72
2022/12/10 11:10:20;;;;;;;70.70;29.17;;;1.80;99.90;;;;;;5070963;28;20242;-72
2022/12/10 11:13:07;;;;;;;70.63;28.80;;;2.00;99.90;;;;;;5091103;28;20226;-72
2022/12/10 11:15:35;;;;;;;59.23;24.50;;;2.30;99.90;;;;;;5092812;28;20196;-73
2022/12/10 11:18:20;;;;;;;64.57;26.30;;;2.30;99.90;;;;;;5093623;28;20170;-72
2022/12/10 11:20:58;;;;;;;81.27;38.73;;;2.10;99.90;;;;;;5092603;28;20259;-72
2022/12/10 11:23:28;;;;;;;67.97;28.83;;;2.10;99.90;;;;;;5093118;28;20257;-72
2022/12/10 11:26:37;;;;;;;62.80;26.17;;;2.10;99.90;;;;;;5091993;28;20167;-71
2022/12/10 11:29:24;;;;;;;72.30;31.37;;;2.20;99.90;;;;;;5047372;28;20742;-71
2022/12/10 11:31:55;;;;;;;65.20;28.00;;;2.00;99.90;;;;;;5092433;28;20203;-72
2022/12/10 11:34:24;;;;;;;69.57;26.20;;;2.00;99.90;;;;;;5091169;28;20171;-71
2022/12/10 11:36:55;;;;;;;63.27;25.77;;;2.20;99.90;;;;;;5093156;28;20587;-71
2022/12/10 11:39:46;;;;;;;64.67;25.53;;;2.00;99.90;;;;;;5093025;28;20661;-71
2022/12/10 11:42:17;;;;;;;67.07;26.47;;;2.00;99.90;;;;;;5091979;28;20177;-72
2022/12/10 11:45:32;;;;;;;63.40;24.93;;;2.00;99.90;;;;;;5092673;28;20654;-71
2022/12/10 11:48:17;;;;;;;79.30;38.60;;;2.00;99.90;;;;;;5052286;28;20635;-71
2022/12/10 11:50:48;;;;;;;79.70;32.90;;;2.00;99.90;;;;;;5093313;28;20164;-70
2022/12/10 11:53:13;;;;;;;69.17;27.03;;;2.00;99.90;;;;;;5092178;28;20195;-71
2022/12/10 11:55:52;;;;;;;75.80;28.57;;;2.10;99.90;;;;;;5090663;28;20210;-71
2022/12/10 11:58:36;;;;;;;72.50;26.00;;;2.10;99.90;;;;;;5090536;28;20627;-71
2022/12/10 12:01:06;;;;;;;73.17;30.77;;;2.00;99.90;;;;;;5092412;28;20172;-71
2022/12/10 12:03:38;;;;;;;64.40;24.90;;;2.20;99.90;;;;;;5092402;28;20215;-71
2022/12/10 12:06:25;;;;;;;62.73;24.37;;;2.30;99.90;;;;;;5091315;28;20570;-71
2022/12/10 12:09:24;;;;;;;71.37;29.57;;;2.30;99.90;;;;;;5091847;28;20294;-71
2022/12/10 12:11:58;;;;;;;61.90;27.00;;;2.40;99.90;;;;;;5091739;28;20215;-71
2022/12/10 12:14:40;;;;;;;64.80;26.57;;;2.40;99.90;;;;;;5092248;28;20171;-71
2022/12/10 12:17:24;;;;;;;64.20;25.07;;;2.40;99.90;;;;;;5092295;28;20314;-71
2022/12/10 12:19:52;;;;;;;61.17;23.43;;;2.40;99.90;;;;;;5091967;28;20325;-71
2022/12/10 12:22:28;;;;;;;61.37;24.17;;;2.40;99.90;;;;;;5092824;28;20175;-71
2022/12/10 12:25:00;;;;;;;65.93;23.27;;;2.50;99.90;;;;;;5092680;28;20221;-71
2022/12/10 12:27:38;;;;;;;58.43;24.30;;;2.50;99.90;;;;;;5092229;28;20195;-72
2022/12/10 12:30:15;;;;;;;58.57;25.10;;;2.60;99.90;;;;;;5092144;28;20168;-73
2022/12/10 12:33:06;;;;;;;58.73;27.17;;;2.50;99.90;;;;;;5092473;28;20168;-72
2022/12/10 12:35:43;;;;;;;60.60;26.07;;;2.50;99.90;;;;;;5091947;28;20261;-72
2022/12/10 12:38:35;;;;;;;58.53;24.67;;;2.40;99.90;;;;;;5092678;28;20187;-74
2022/12/10 12:41:06;;;;;;;73.23;39.27;;;2.30;99.90;;;;;;5094872;28;20170;-71
2022/12/10 12:43:34;;;;;;;58.53;24.10;;;2.40;99.90;;;;;;5096089;28;20232;-72
2022/12/10 12:46:03;;;;;;;58.60;25.60;;;2.50;99.90;;;;;;5096243;28;20233;-73
2022/12/10 12:48:41;;;;;;;63.50;36.30;;;2.60;99.90;;;;;;5095298;28;20246;-72
2022/12/10 12:51:32;;;;;;;54.50;21.87;;;2.50;99.90;;;;;;5095950;28;20541;-72
2022/12/10 12:53:57;;;;;;;56.40;22.83;;;2.50;99.90;;;;;;5095612;28;20164;-72
2022/12/10 12:56:26;;;;;;;51.43;22.63;;;2.40;99.90;;;;;;5096004;28;20536;-72
2022/12/10 12:59:19;;;;;;;54.77;24.90;;;2.30;99.90;;;;;;5095639;28;20196;-73
2022/12/10 13:01:58;;;;;;;51.30;22.03;;;2.30;99.90;;;;;;5095915;28;20213;-71
2022/12/10 13:04:25;;;;;;;46.80;22.60;;;2.20;99.90;;;;;;5095134;28;20246;-72